Time;durP1;ratioP1;P1;durP2;ratioP2;P2;SDS_P1;SDS_P2;PMS_P1;PMS_P2;Temp;Humidity;BMP_temperature;BMP_pressure;BME280_temperature;BME280_humidity;BME280_pressure;Samples;Min_cycle;Max_cycle;Signal;HPM_P1;HPM_P2
2022/12/02 00:00:39;;;;;;;57.62;25.77;;;3.50;99.90;;;;;;7372906;32;20471;-59
2022/12/02 00:04:41;;;;;;;57.25;25.58;;;3.50;99.90;;;;;;7378291;32;20253;-59
2022/12/02 00:08:43;;;;;;;59.35;26.75;;;3.40;99.90;;;;;;7370249;32;20526;-59
2022/12/02 00:12:44;;;;;;;57.67;26.12;;;3.40;99.90;;;;;;7375236;32;20111;-59
2022/12/02 00:16:47;;;;;;;62.13;26.67;;;3.50;99.90;;;;;;7370383;32;20837;-58
2022/12/02 00:20:48;;;;;;;55.90;26.02;;;3.40;99.90;;;;;;7366848;32;20178;-59
2022/12/02 00:24:50;;;;;;;59.63;27.90;;;3.50;99.90;;;;;;7372525;32;20461;-60
2022/12/02 00:28:52;;;;;;;63.30;27.75;;;3.40;99.90;;;;;;7364640;32;20099;-59
2022/12/02 00:32:53;;;;;;;66.30;28.62;;;3.50;99.90;;;;;;7367085;32;20134;-58
2022/12/02 00:36:55;;;;;;;74.05;31.12;;;3.50;99.90;;;;;;7378991;32;20099;-59
2022/12/02 00:40:57;;;;;;;72.90;31.02;;;3.50;99.90;;;;;;7379758;32;20233;-58
2022/12/02 00:49:19;;;;;;;77.85;31.55;;;3.30;99.90;;;;;;7372496;32;20137;-59
2022/12/02 00:53:21;;;;;;;69.40;30.45;;;3.40;99.90;;;;;;7368886;32;20104;-59
2022/12/02 00:57:23;;;;;;;62.05;28.75;;;3.40;99.90;;;;;;7372337;32;20115;-59
2022/12/02 01:01:25;;;;;;;56.25;25.75;;;3.40;99.90;;;;;;7367543;32;20123;-59
2022/12/02 01:05:27;;;;;;;50.92;23.15;;;3.40;99.90;;;;;;7375844;32;20198;-58
2022/12/02 01:09:28;;;;;;;43.40;21.10;;;3.30;99.90;;;;;;7379826;32;20108;-59
2022/12/02 01:13:30;;;;;;;41.95;20.10;;;3.30;99.90;;;;;;7379041;32;20107;-59
2022/12/02 01:17:32;;;;;;;37.67;20.05;;;3.30;99.90;;;;;;7378327;32;20138;-59
2022/12/02 01:21:33;;;;;;;43.80;20.25;;;3.30;99.90;;;;;;7381637;32;20134;-59
2022/12/02 01:25:35;;;;;;;42.53;20.33;;;3.30;99.90;;;;;;7378567;32;20174;-59
2022/12/02 01:29:37;;;;;;;43.42;20.90;;;3.40;99.90;;;;;;7375923;32;20510;-58
2022/12/02 01:33:39;;;;;;;40.15;20.67;;;3.30;99.90;;;;;;7376147;32;20099;-58
2022/12/02 01:37:40;;;;;;;41.22;20.73;;;3.30;99.90;;;;;;7377397;32;20107;-59
2022/12/02 01:41:42;;;;;;;40.78;21.25;;;3.30;99.90;;;;;;7374817;32;20518;-59
2022/12/02 01:45:44;;;;;;;40.15;20.92;;;3.30;99.90;;;;;;7377071;32;20245;-58
2022/12/02 01:49:46;;;;;;;39.63;19.73;;;3.30;99.90;;;;;;7366326;32;20122;-59
2022/12/02 01:53:47;;;;;;;39.72;19.90;;;3.30;99.90;;;;;;7374554;32;20708;-59
2022/12/02 01:57:50;;;;;;;35.28;18.77;;;3.40;99.90;;;;;;7370820;32;20542;-59
2022/12/02 02:01:52;;;;;;;39.33;18.85;;;3.40;99.90;;;;;;7386109;32;20111;-59
2022/12/02 02:05:54;;;;;;;41.53;19.85;;;3.40;99.90;;;;;;7370632;32;20140;-58
2022/12/02 02:09:56;;;;;;;35.85;18.73;;;3.50;99.90;;;;;;7379932;32;20130;-59
2022/12/02 02:13:58;;;;;;;38.78;19.35;;;3.40;99.90;;;;;;7379977;32;20186;-59
2022/12/02 02:18:00;;;;;;;38.63;19.17;;;3.50;99.90;;;;;;7375355;32;20125;-59
2022/12/02 02:22:13;;;;;;;37.67;18.73;;;3.40;99.90;;;;;;7374858;32;20095;-58
2022/12/02 02:26:15;;;;;;;34.95;18.58;;;3.50;99.90;;;;;;7383790;32;20276;-58
2022/12/02 02:30:18;;;;;;;36.08;19.12;;;3.50;99.90;;;;;;7375601;32;20198;-59
2022/12/02 02:34:19;;;;;;;38.20;19.05;;;3.40;99.90;;;;;;7375801;32;20518;-59
2022/12/02 02:38:23;;;;;;;39.22;20.62;;;3.40;99.90;;;;;;7380331;32;20186;-60
2022/12/02 02:42:25;;;;;;;44.45;21.70;;;3.30;99.90;;;;;;7380926;32;20110;-59
2022/12/02 02:46:27;;;;;;;41.88;20.58;;;3.30;99.90;;;;;;7369257;32;20115;-59
2022/12/02 02:50:30;;;;;;;41.80;21.80;;;3.30;99.90;;;;;;7377994;32;20157;-60
2022/12/02 02:54:31;;;;;;;47.50;24.10;;;3.30;99.90;;;;;;7380363;32;20164;-59
2022/12/02 02:58:34;;;;;;;48.87;24.75;;;3.40;99.90;;;;;;7381282;32;20252;-59
2022/12/02 03:02:36;;;;;;;53.08;24.58;;;3.30;99.90;;;;;;7378429;32;20610;-59
2022/12/02 03:06:40;;;;;;;60.10;26.30;;;3.40;99.90;;;;;;7371502;32;20194;-60
2022/12/02 03:10:42;;;;;;;64.60;30.00;;;3.50;99.90;;;;;;7378100;32;20107;-59
2022/12/02 03:14:44;;;;;;;65.32;30.20;;;3.40;99.90;;;;;;7371964;32;20458;-59
2022/12/02 03:18:47;;;;;;;66.45;30.25;;;3.50;99.90;;;;;;7372414;32;20126;-59
2022/12/02 03:22:49;;;;;;;67.72;30.80;;;3.50;99.90;;;;;;7374507;32;20202;-60
2022/12/02 03:26:51;;;;;;;65.55;30.55;;;3.40;99.90;;;;;;7380192;32;20133;-60
2022/12/02 03:30:52;;;;;;;73.32;32.90;;;3.40;99.90;;;;;;7371920;32;20133;-59
2022/12/02 03:34:54;;;;;;;66.78;29.92;;;3.40;99.90;;;;;;7380082;32;20110;-59
2022/12/02 03:38:56;;;;;;;67.35;30.40;;;3.40;99.90;;;;;;7372206;32;20103;-60
2022/12/02 03:42:58;;;;;;;75.78;32.13;;;3.40;99.90;;;;;;7374519;32;20567;-59
2022/12/02 03:47:01;;;;;;;67.87;29.12;;;3.50;99.90;;;;;;7370453;32;20118;-59
2022/12/02 03:51:03;;;;;;;65.68;28.55;;;3.40;99.90;;;;;;7373825;32;20131;-59
2022/12/02 03:55:05;;;;;;;68.10;28.33;;;3.40;99.90;;;;;;7366129;32;20194;-59
2022/12/02 03:59:09;;;;;;;64.15;28.08;;;3.40;99.90;;;;;;7369646;32;20111;-59
2022/12/02 04:03:11;;;;;;;61.15;28.27;;;3.40;99.90;;;;;;7377608;32;20107;-60
2022/12/02 04:07:12;;;;;;;63.28;28.12;;;3.30;99.90;;;;;;7371683;32;20242;-60
2022/12/02 04:11:14;;;;;;;67.03;27.80;;;3.40;99.90;;;;;;7372085;32;20773;-59
2022/12/02 04:15:16;;;;;;;63.33;28.20;;;3.40;99.90;;;;;;7370904;32;20131;-59
2022/12/02 04:19:18;;;;;;;66.05;27.95;;;3.30;99.90;;;;;;7367319;32;20217;-59
2022/12/02 04:23:20;;;;;;;61.08;28.10;;;3.40;99.90;;;;;;7375528;32;20416;-59
2022/12/02 04:27:21;;;;;;;70.53;28.62;;;3.40;99.90;;;;;;7371004;32;20183;-59
2022/12/02 04:31:23;;;;;;;59.42;27.37;;;3.40;99.90;;;;;;7373566;32;20600;-60
2022/12/02 04:35:25;;;;;;;63.58;27.80;;;3.40;99.90;;;;;;7372514;32;20107;-59
2022/12/02 04:39:26;;;;;;;61.83;27.98;;;3.40;99.90;;;;;;7373449;32;20115;-60
2022/12/02 04:43:28;;;;;;;62.17;27.08;;;3.40;99.90;;;;;;7371030;32;20696;-60
2022/12/02 04:47:30;;;;;;;61.95;28.17;;;3.40;99.90;;;;;;7376731;32;20107;-59
2022/12/02 04:51:32;;;;;;;67.18;28.77;;;3.40;99.90;;;;;;7377442;32;20102;-60
2022/12/02 04:55:34;;;;;;;64.72;27.83;;;3.40;99.90;;;;;;7380511;32;20145;-59
2022/12/02 04:59:35;;;;;;;69.80;26.90;;;3.40;99.90;;;;;;7371178;32;21357;-59
2022/12/02 05:03:37;;;;;;;60.60;26.25;;;3.40;99.90;;;;;;7381000;32;20202;-59
2022/12/02 05:07:39;;;;;;;63.03;26.85;;;3.40;99.90;;;;;;7374091;32;20235;-59
2022/12/02 05:11:40;;;;;;;59.58;26.20;;;3.40;99.90;;;;;;7372434;32;20226;-61
2022/12/02 05:15:42;;;;;;;59.22;27.55;;;3.40;99.90;;;;;;7379935;32;20160;-60
2022/12/02 05:19:44;;;;;;;59.03;26.10;;;3.40;99.90;;;;;;7378380;32;20103;-59
2022/12/02 05:23:46;;;;;;;61.13;26.95;;;3.40;99.90;;;;;;7368691;32;20545;-58
2022/12/02 05:27:47;;;;;;;68.03;26.00;;;3.40;99.90;;;;;;7378886;32;20099;-59
2022/12/02 05:31:49;;;;;;;64.95;26.58;;;3.40;99.90;;;;;;7372243;32;20104;-59
2022/12/02 05:35:51;;;;;;;63.30;25.92;;;3.40;99.90;;;;;;7375591;32;20757;-60
2022/12/02 05:39:53;;;;;;;63.90;26.27;;;3.40;99.90;;;;;;7370104;32;20115;-61
2022/12/02 05:43:56;;;;;;;58.35;24.80;;;3.40;99.90;;;;;;7369720;32;20134;-58
2022/12/02 05:47:58;;;;;;;67.60;26.12;;;3.40;99.90;;;;;;7369836;32;20118;-59
2022/12/02 05:52:06;;;;;;;63.15;26.73;;;3.40;99.90;;;;;;7370321;32;20443;-58
2022/12/02 05:56:24;;;;;;;62.72;26.80;;;3.40;99.90;;;;;;7379769;32;20137;-59
2022/12/02 06:00:26;;;;;;;57.62;23.58;;;3.40;99.90;;;;;;7372006;32;20168;-60
2022/12/02 06:04:31;;;;;;;58.53;24.27;;;3.40;99.90;;;;;;7362465;32;20229;-59
2022/12/02 06:08:33;;;;;;;60.65;23.65;;;3.40;99.90;;;;;;7376498;32;20138;-61
2022/12/02 06:12:40;;;;;;;60.72;24.02;;;3.40;99.90;;;;;;7370288;32;20190;-60
2022/12/02 06:16:50;;;;;;;57.62;24.05;;;3.40;99.90;;;;;;7370141;32;20237;-59
2022/12/02 06:21:03;;;;;;;59.22;24.05;;;3.40;99.90;;;;;;7376729;32;20583;-60
2022/12/02 06:25:26;;;;;;;55.15;22.95;;;3.40;99.90;;;;;;7380923;32;20116;-59
2022/12/02 06:29:30;;;;;;;61.33;23.30;;;3.40;99.90;;;;;;7382248;32;20106;-59
2022/12/02 06:33:35;;;;;;;55.95;24.85;;;3.40;99.90;;;;;;7377014;32;20107;-59
2022/12/02 06:37:36;;;;;;;62.35;25.60;;;3.40;99.90;;;;;;7364734;32;20205;-59
2022/12/02 06:41:39;;;;;;;60.50;22.75;;;3.40;99.90;;;;;;7370210;32;20171;-59
2022/12/02 06:45:42;;;;;;;58.90;24.25;;;3.40;99.90;;;;;;7370097;32;20111;-60
2022/12/02 06:49:44;;;;;;;58.03;24.80;;;3.40;99.90;;;;;;7376803;32;20099;-59
2022/12/02 06:53:47;;;;;;;63.83;25.30;;;3.20;99.90;;;;;;7374177;32;20104;-59
2022/12/02 06:57:49;;;;;;;59.92;24.35;;;3.30;99.90;;;;;;7372548;32;20466;-60
2022/12/02 07:01:56;;;;;;;64.32;26.80;;;3.30;99.90;;;;;;7375373;32;20154;-60
2022/12/02 07:06:08;;;;;;;;;;;3.30;99.90;;;;;;7375059;32;20523;-59
2022/12/02 07:10:19;;;;;;;74.95;27.37;;;3.30;99.90;;;;;;7380977;32;20137;-60
2022/12/02 07:14:56;;;;;;;69.95;28.08;;;3.30;99.90;;;;;;7373082;32;20183;-60
2022/12/02 07:18:59;;;;;;;84.43;30.42;;;3.30;99.90;;;;;;7374720;32;20186;-60
2022/12/02 07:23:22;;;;;;;87.97;31.85;;;3.30;99.90;;;;;;7376238;32;20221;-62
2022/12/02 07:27:25;;;;;;;88.93;33.17;;;3.30;99.90;;;;;;7365875;32;20129;-61
2022/12/02 07:31:29;;;;;;;89.60;32.40;;;3.30;99.90;;;;;;7373026;32;20757;-62
2022/12/02 07:35:30;;;;;;;85.30;34.33;;;3.30;99.90;;;;;;7373459;32;20099;-62
2022/12/02 07:39:32;;;;;;;93.70;36.78;;;3.30;99.90;;;;;;7376845;32;20194;-61
2022/12/02 07:43:34;;;;;;;100.72;37.10;;;3.30;99.90;;;;;;7371918;32;20135;-61
2022/12/02 07:47:35;;;;;;;94.00;35.50;;;3.30;99.90;;;;;;7370329;32;20229;-61
2022/12/02 07:51:37;;;;;;;100.82;37.47;;;3.20;99.90;;;;;;7368181;32;20237;-61
2022/12/02 07:55:39;;;;;;;99.60;35.58;;;3.30;99.90;;;;;;7374686;32;20099;-61
2022/12/02 07:59:40;;;;;;;95.05;33.13;;;3.30;99.90;;;;;;7371912;32;20141;-61
2022/12/02 08:03:42;;;;;;;84.32;33.22;;;3.30;99.90;;;;;;7373390;32;20226;-61
2022/12/02 08:07:44;;;;;;;93.60;35.97;;;3.30;99.90;;;;;;7369820;32;20106;-61
2022/12/02 08:11:46;;;;;;;92.57;34.45;;;3.30;99.90;;;;;;7364623;32;20242;-62
2022/12/02 08:15:47;;;;;;;85.72;33.53;;;3.30;99.90;;;;;;7366149;32;20470;-61
2022/12/02 08:19:54;;;;;;;;;;;3.30;99.90;;;;;;7371017;32;20168;-61
2022/12/02 08:23:56;;;;;;;83.62;32.63;;;3.40;99.90;;;;;;7373482;32;20024;-60
2022/12/02 08:27:57;;;;;;;82.72;31.02;;;3.30;99.90;;;;;;7375314;32;20241;-61
2022/12/02 08:31:59;;;;;;;80.53;30.58;;;3.40;99.90;;;;;;7374734;32;20264;-61
2022/12/02 08:36:01;;;;;;;84.28;33.22;;;3.50;99.90;;;;;;7374558;32;20107;-60
2022/12/02 08:40:03;;;;;;;89.68;32.97;;;3.40;99.90;;;;;;7374761;32;20829;-60
2022/12/02 08:44:06;;;;;;;74.12;30.83;;;3.40;99.90;;;;;;7371511;32;20108;-59
2022/12/02 08:48:07;;;;;;;76.22;29.35;;;3.40;99.90;;;;;;7373850;32;20120;-60
2022/12/02 08:52:09;;;;;;;64.68;29.63;;;3.40;99.90;;;;;;7378146;32;20714;-61
2022/12/02 08:56:11;;;;;;;74.43;29.90;;;3.40;99.90;;;;;;7361512;32;20567;-62
2022/12/02 09:00:13;;;;;;;69.87;31.17;;;3.40;99.90;;;;;;7371492;32;20558;-61
2022/12/02 09:04:15;;;;;;;58.55;27.67;;;3.50;99.90;;;;;;7372388;32;20133;-61
2022/12/02 09:08:16;;;;;;;73.90;28.48;;;3.40;99.90;;;;;;7372174;32;20107;-61
2022/12/02 09:12:18;;;;;;;58.80;28.08;;;3.50;99.90;;;;;;7367364;32;20125;-61
2022/12/02 09:16:20;;;;;;;67.57;28.40;;;3.50;99.90;;;;;;7366641;32;20219;-61
2022/12/02 09:20:22;;;;;;;61.10;26.87;;;3.40;99.90;;;;;;7369746;32;20110;-61
2022/12/02 09:24:23;;;;;;;60.83;27.05;;;3.50;99.90;;;;;;7369515;32;20452;-61
2022/12/02 09:28:25;;;;;;;58.65;26.85;;;3.40;99.90;;;;;;7381788;32;20103;-61
2022/12/02 09:32:27;;;;;;;60.10;26.55;;;3.40;99.90;;;;;;7377184;32;20107;-60
2022/12/02 09:36:28;;;;;;;53.72;26.00;;;3.40;99.90;;;;;;7374940;32;21059;-60
2022/12/02 09:40:32;;;;;;;64.20;27.33;;;3.50;99.90;;;;;;7375530;32;20220;-61
2022/12/02 09:44:34;;;;;;;48.90;24.95;;;3.50;99.90;;;;;;7375618;32;20115;-61
2022/12/02 09:48:36;;;;;;;48.55;24.60;;;3.50;99.90;;;;;;7378728;32;20780;-60
2022/12/02 09:52:38;;;;;;;55.63;27.20;;;3.50;99.90;;;;;;7379427;32;20141;-60
2022/12/02 09:56:40;;;;;;;59.42;26.67;;;3.50;99.90;;;;;;7374472;32;20189;-60
2022/12/02 10:00:42;;;;;;;58.22;26.23;;;3.50;99.90;;;;;;7377887;32;20107;-60
2022/12/02 10:04:44;;;;;;;56.50;25.50;;;3.50;99.90;;;;;;7375445;32;20140;-60
2022/12/02 10:08:46;;;;;;;48.78;25.25;;;3.60;99.90;;;;;;7373773;32;20103;-60
2022/12/02 10:12:48;;;;;;;51.65;25.42;;;3.60;99.90;;;;;;7367939;32;20121;-60
2022/12/02 10:16:52;;;;;;;47.00;24.35;;;3.60;99.90;;;;;;7378834;32;20892;-64
2022/12/02 10:20:54;;;;;;;48.72;23.27;;;3.60;99.90;;;;;;7376912;32;20225;-60
2022/12/02 10:24:57;;;;;;;44.80;24.25;;;3.60;99.90;;;;;;7376110;32;20102;-61
2022/12/02 10:29:07;;;;;;;46.22;24.12;;;3.70;99.90;;;;;;7373356;32;20216;-61
2022/12/02 10:33:12;;;;;;;42.65;23.00;;;3.70;99.90;;;;;;7374416;32;20130;-61
2022/12/02 10:37:22;;;;;;;45.90;24.42;;;3.60;99.90;;;;;;7373007;32;20545;-60
2022/12/02 10:41:24;;;;;;;42.55;23.12;;;3.60;99.90;;;;;;7374823;32;20099;-61
2022/12/02 10:45:26;;;;;;;42.10;22.98;;;3.50;99.90;;;;;;7370088;32;20214;-61
2022/12/02 10:49:33;;;;;;;42.38;24.05;;;3.60;99.90;;;;;;7374158;32;20486;-61
2022/12/02 10:53:35;;;;;;;44.88;24.50;;;3.60;99.90;;;;;;7374171;32;20466;-61
2022/12/02 10:57:37;;;;;;;43.35;24.85;;;3.60;99.90;;;;;;7375409;32;20225;-60
2022/12/02 11:01:39;;;;;;;41.28;24.00;;;3.60;99.90;;;;;;7374399;32;20104;-61
2022/12/02 11:05:41;;;;;;;46.60;24.05;;;3.60;99.90;;;;;;7367456;32;20115;-61
2022/12/02 11:09:46;;;;;;;41.63;22.95;;;3.70;99.90;;;;;;7370300;32;20789;-61
2022/12/02 11:13:59;;;;;;;41.25;22.37;;;3.70;99.90;;;;;;7377273;32;20185;-61
2022/12/02 11:18:01;;;;;;;43.92;25.17;;;3.60;99.90;;;;;;7372969;32;20122;-61
2022/12/02 11:22:03;;;;;;;45.38;23.95;;;3.60;99.90;;;;;;7371814;32;20154;-61
2022/12/02 11:26:10;;;;;;;42.88;23.73;;;3.60;99.90;;;;;;7376597;32;20127;-61
2022/12/02 11:30:15;;;;;;;40.60;23.25;;;3.60;99.90;;;;;;7369223;32;20213;-62
2022/12/02 11:34:24;;;;;;;41.88;24.00;;;3.60;99.90;;;;;;7363008;32;20225;-61
2022/12/02 11:38:26;;;;;;;41.20;24.17;;;3.70;99.90;;;;;;7365614;32;20169;-60
2022/12/02 11:42:30;;;;;;;41.08;22.67;;;3.70;99.90;;;;;;7370744;32;20100;-61
2022/12/02 11:46:54;;;;;;;41.63;24.73;;;3.80;99.90;;;;;;7364079;32;20135;-60
2022/12/02 11:50:56;;;;;;;46.33;24.17;;;3.50;99.90;;;;;;7366517;32;20756;-61
2022/12/02 11:55:18;;;;;;;49.75;24.92;;;3.50;99.90;;;;;;7378540;32;20107;-61
2022/12/02 11:59:24;;;;;;;45.30;22.90;;;3.50;99.90;;;;;;7368882;32;20276;-61
2022/12/02 12:03:26;;;;;;;46.58;23.58;;;3.50;99.90;;;;;;7379192;32;20209;-61
2022/12/02 12:07:41;;;;;;;41.90;23.05;;;3.60;99.90;;;;;;7361827;32;20233;-62
2022/12/02 12:11:42;;;;;;;48.03;24.77;;;3.50;99.90;;;;;;7374753;32;20541;-61
2022/12/02 12:15:50;;;;;;;44.30;24.63;;;3.60;99.90;;;;;;7369685;32;20188;-61
2022/12/02 12:19:52;;;;;;;43.10;22.83;;;3.60;99.90;;;;;;7365605;32;20202;-61
2022/12/02 12:23:53;;;;;;;53.33;25.88;;;3.70;99.90;;;;;;7371742;32;20395;-61
2022/12/02 12:27:55;;;;;;;51.47;27.17;;;3.50;99.90;;;;;;7365704;32;20102;-62
2022/12/02 12:31:57;;;;;;;46.92;24.92;;;3.40;99.90;;;;;;7365260;32;22095;-62
2022/12/02 12:35:59;;;;;;;48.70;24.92;;;3.50;99.90;;;;;;7371100;32;20100;-61
2022/12/02 12:40:01;;;;;;;46.85;24.48;;;3.60;99.90;;;;;;7366672;32;20115;-62
2022/12/02 12:44:03;;;;;;;48.17;25.27;;;3.60;99.90;;;;;;7369531;32;20142;-62
2022/12/02 12:48:05;;;;;;;44.80;23.50;;;3.60;99.90;;;;;;7359978;32;20206;-61
2022/12/02 12:52:07;;;;;;;44.75;24.05;;;3.70;99.90;;;;;;7365823;32;20191;-62
2022/12/02 12:56:08;;;;;;;47.47;24.17;;;3.70;99.90;;;;;;7367869;32;20122;-60
2022/12/02 13:00:11;;;;;;;52.35;25.12;;;3.60;99.90;;;;;;7368261;32;20130;-62
2022/12/02 13:04:13;;;;;;;47.92;24.10;;;3.60;99.90;;;;;;7364783;32;20106;-61
2022/12/02 13:08:14;;;;;;;51.00;26.25;;;3.60;99.90;;;;;;7370726;32;20531;-61
2022/12/02 13:12:16;;;;;;;47.95;25.02;;;3.60;99.90;;;;;;7374249;32;20278;-61
2022/12/02 13:16:18;;;;;;;52.67;24.75;;;3.60;99.90;;;;;;7376983;32;20787;-61
2022/12/02 13:20:20;;;;;;;47.00;24.92;;;3.70;99.90;;;;;;7376700;32;20121;-62
2022/12/02 13:24:23;;;;;;;46.75;24.50;;;3.70;99.90;;;;;;7372925;32;20664;-62
2022/12/02 13:28:25;;;;;;;49.35;25.42;;;3.80;99.90;;;;;;7369098;32;20495;-61
2022/12/02 13:32:26;;;;;;;52.75;27.70;;;3.70;99.90;;;;;;7373253;32;20129;-61
2022/12/02 13:36:28;;;;;;;54.95;26.87;;;3.60;99.90;;;;;;7367354;32;20348;-61
2022/12/02 13:40:30;;;;;;;51.88;27.95;;;3.60;99.90;;;;;;7379978;32;20111;-62
2022/12/02 13:44:31;;;;;;;58.70;28.27;;;3.60;99.90;;;;;;7372877;32;20233;-62
2022/12/02 13:48:33;;;;;;;51.63;25.65;;;3.50;99.90;;;;;;7375672;32;20119;-61
2022/12/02 13:52:35;;;;;;;51.08;26.40;;;3.40;99.90;;;;;;7380863;32;20106;-61
2022/12/02 13:56:36;;;;;;;51.78;27.13;;;3.40;99.90;;;;;;7378616;32;20228;-60
2022/12/02 14:00:38;;;;;;;53.40;27.13;;;3.30;99.90;;;;;;7376440;32;20102;-61
2022/12/02 14:04:40;;;;;;;51.95;27.20;;;3.40;99.90;;;;;;7378976;32;20099;-60
2022/12/02 14:08:42;;;;;;;51.22;27.77;;;3.30;99.90;;;;;;7382501;32;20104;-60
2022/12/02 14:12:43;;;;;;;55.72;27.92;;;3.30;99.90;;;;;;7375748;32;20139;-60
2022/12/02 14:16:45;;;;;;;56.97;29.33;;;3.30;99.90;;;;;;7370250;32;20137;-61
2022/12/02 14:20:47;;;;;;;54.97;28.65;;;3.30;99.90;;;;;;7377591;32;20143;-61
2022/12/02 14:24:48;;;;;;;54.90;27.50;;;3.30;99.90;;;;;;7379381;32;20108;-60
2022/12/02 14:28:51;;;;;;;51.20;25.25;;;3.30;99.90;;;;;;7371309;32;20194;-61
2022/12/02 14:32:52;;;;;;;52.75;27.13;;;3.30;99.90;;;;;;7379505;32;20517;-63
2022/12/02 14:36:54;;;;;;;51.37;26.25;;;3.30;99.90;;;;;;7360303;32;20654;-58
2022/12/02 14:40:55;;;;;;;51.90;25.80;;;3.30;99.90;;;;;;7371086;32;20135;-58
2022/12/02 14:44:57;;;;;;;49.45;26.33;;;3.30;99.90;;;;;;7366780;32;20122;-58
2022/12/02 14:48:59;;;;;;;45.92;24.83;;;3.50;99.90;;;;;;7363227;32;20221;-61
2022/12/02 14:53:22;;;;;;;49.90;26.08;;;3.40;99.90;;;;;;7363518;32;20243;-61
2022/12/02 14:57:24;;;;;;;46.92;26.60;;;3.30;99.90;;;;;;7367284;32;20096;-61
2022/12/02 15:01:26;;;;;;;46.13;24.27;;;3.30;99.90;;;;;;7363497;32;20198;-61
2022/12/02 15:05:27;;;;;;;46.85;25.23;;;3.20;99.90;;;;;;7369450;32;20131;-62
2022/12/02 15:09:29;;;;;;;47.72;23.45;;;3.20;99.90;;;;;;7377574;32;20114;-62
2022/12/02 15:13:31;;;;;;;46.10;24.75;;;3.20;99.90;;;;;;7371497;32;20202;-62
2022/12/02 15:17:33;;;;;;;46.60;24.98;;;3.30;99.90;;;;;;7372191;32;20161;-62
2022/12/02 15:21:34;;;;;;;48.67;26.67;;;3.20;99.90;;;;;;7366193;32;20106;-61
2022/12/02 15:25:36;;;;;;;55.45;27.05;;;3.20;99.90;;;;;;7372144;32;20134;-62
2022/12/02 15:29:38;;;;;;;52.03;27.40;;;3.20;99.90;;;;;;7365488;32;20183;-64
2022/12/02 15:33:40;;;;;;;48.08;25.92;;;3.20;99.90;;;;;;7364969;32;20091;-62
2022/12/02 15:37:41;;;;;;;46.70;25.92;;;3.20;99.90;;;;;;7370550;32;20223;-61
2022/12/02 15:41:43;;;;;;;47.50;25.48;;;3.10;99.90;;;;;;7376642;32;20132;-61
2022/12/02 15:45:45;;;;;;;42.38;24.20;;;3.10;99.90;;;;;;7361519;32;20202;-60
2022/12/02 15:49:47;;;;;;;41.67;23.73;;;3.20;99.90;;;;;;7367105;32;20107;-60
2022/12/02 15:53:48;;;;;;;36.85;21.05;;;3.10;99.90;;;;;;7367092;32;20510;-59
2022/12/02 15:57:50;;;;;;;39.25;21.90;;;3.00;99.90;;;;;;7376551;32;20143;-60
2022/12/02 16:01:52;;;;;;;37.47;21.33;;;3.10;99.90;;;;;;7363325;32;20107;-60
2022/12/02 16:05:54;;;;;;;35.08;21.75;;;3.00;99.90;;;;;;7361448;32;20135;-59
2022/12/02 16:09:56;;;;;;;33.80;20.85;;;3.10;99.90;;;;;;7365851;32;20479;-59
2022/12/02 16:13:57;;;;;;;30.45;19.45;;;3.00;99.90;;;;;;7365781;32;20213;-60
2022/12/02 16:17:59;;;;;;;33.50;19.23;;;2.90;99.90;;;;;;7369219;32;20112;-59
2022/12/02 16:22:01;;;;;;;30.25;17.98;;;2.90;99.90;;;;;;7367619;32;20194;-61
2022/12/02 16:26:03;;;;;;;33.40;21.45;;;2.90;99.90;;;;;;7369870;32;20130;-60
2022/12/02 16:30:05;;;;;;;30.20;17.65;;;2.90;99.90;;;;;;7360855;32;20548;-59
2022/12/02 16:34:07;;;;;;;30.35;20.23;;;2.80;99.90;;;;;;7357816;32;20111;-59
2022/12/02 16:38:08;;;;;;;37.67;24.90;;;2.90;99.90;;;;;;7369555;32;20273;-59
2022/12/02 16:42:10;;;;;;;28.73;17.80;;;2.90;99.90;;;;;;7366898;32;20133;-59
2022/12/02 16:46:12;;;;;;;41.45;26.70;;;2.80;99.90;;;;;;7364444;32;20254;-59
2022/12/02 16:50:15;;;;;;;35.25;19.45;;;2.80;99.90;;;;;;7363516;32;20107;-58
2022/12/02 16:54:17;;;;;;;32.00;19.50;;;2.80;99.90;;;;;;7367958;32;20107;-58
2022/12/02 16:58:19;;;;;;;31.08;17.50;;;2.70;99.90;;;;;;7367363;32;20129;-59
2022/12/02 17:02:20;;;;;;;31.70;19.67;;;2.70;99.90;;;;;;7358325;32;20218;-59
2022/12/02 17:06:23;;;;;;;31.73;20.58;;;2.60;99.90;;;;;;7365055;32;20204;-59
2022/12/02 17:10:25;;;;;;;29.50;18.73;;;2.70;99.90;;;;;;7376935;32;20153;-58
2022/12/02 17:14:26;;;;;;;30.88;19.60;;;2.60;99.90;;;;;;7366519;32;20133;-58
2022/12/02 17:18:28;;;;;;;36.40;23.33;;;2.60;99.90;;;;;;7364538;32;20099;-59
2022/12/02 17:22:30;;;;;;;35.13;20.35;;;2.50;99.90;;;;;;7364546;32;20753;-58
2022/12/02 17:26:32;;;;;;;33.42;20.05;;;2.60;99.90;;;;;;7374386;32;20190;-59
2022/12/02 17:30:33;;;;;;;35.38;21.90;;;2.50;99.90;;;;;;7367642;32;20129;-58
2022/12/02 17:34:35;;;;;;;37.05;21.58;;;2.50;99.90;;;;;;7373827;32;20908;-58
2022/12/02 17:38:49;;;;;;;36.03;21.98;;;2.60;99.90;;;;;;7364211;32;20220;-59
2022/12/02 17:42:57;;;;;;;35.08;19.27;;;2.50;99.90;;;;;;7365893;32;20144;-58
2022/12/02 17:46:58;;;;;;;35.05;20.98;;;2.50;99.90;;;;;;7376415;32;20129;-58
2022/12/02 17:51:00;;;;;;;43.63;26.92;;;2.50;99.90;;;;;;7375272;32;20118;-58
2022/12/02 17:55:02;;;;;;;90.85;49.13;;;2.50;99.90;;;;;;7375247;32;20678;-59
2022/12/02 17:59:11;;;;;;;75.65;41.10;;;2.50;99.90;;;;;;7372271;32;20155;-59
2022/12/02 18:03:12;;;;;;;90.35;48.20;;;2.50;99.90;;;;;;7374061;32;20205;-58
2022/12/02 18:07:14;;;;;;;34.53;19.73;;;2.40;99.90;;;;;;7380590;32;20225;-59
2022/12/02 18:11:16;;;;;;;43.50;25.50;;;2.40;99.90;;;;;;7373682;32;20104;-59
2022/12/02 18:15:18;;;;;;;55.70;31.42;;;2.30;99.90;;;;;;7370909;32;20108;-58
2022/12/02 18:19:19;;;;;;;31.30;17.85;;;2.40;99.90;;;;;;7377996;32;20598;-58
2022/12/02 18:23:21;;;;;;;48.10;27.00;;;2.30;99.90;;;;;;7385501;32;20505;-59
2022/12/02 18:27:28;;;;;;;;;;;2.30;99.90;;;;;;7380402;32;20178;-59
2022/12/02 18:31:30;;;;;;;36.92;22.23;;;2.30;99.90;;;;;;7368903;32;20025;-58
2022/12/02 18:35:31;;;;;;;34.58;21.10;;;2.30;99.90;;;;;;7379852;32;20249;-59
2022/12/02 18:39:33;;;;;;;43.20;24.42;;;2.30;99.90;;;;;;7376228;32;20110;-58
2022/12/02 18:43:35;;;;;;;34.22;18.98;;;2.30;99.90;;;;;;7371398;32;20531;-59
2022/12/02 18:47:38;;;;;;;43.95;24.87;;;2.20;99.90;;;;;;7377589;32;20547;-59
2022/12/02 18:51:40;;;;;;;56.25;29.37;;;2.20;99.90;;;;;;7373729;32;20108;-59
2022/12/02 18:55:41;;;;;;;37.58;22.37;;;2.20;99.90;;;;;;7371312;32;20107;-60
2022/12/02 18:59:43;;;;;;;128.40;57.35;;;2.20;99.90;;;;;;7370991;32;20265;-59
2022/12/02 19:03:44;;;;;;;440.17;184.00;;;2.30;99.90;;;;;;7368231;32;20174;-59
2022/12/02 19:07:46;;;;;;;35.22;21.05;;;2.30;99.90;;;;;;7377894;32;20108;-59
2022/12/02 19:11:48;;;;;;;32.83;19.12;;;2.20;99.90;;;;;;7373391;32;20223;-59
2022/12/02 19:15:49;;;;;;;43.33;25.92;;;2.10;99.90;;;;;;7375766;32;20117;-58
2022/12/02 19:19:51;;;;;;;36.03;20.55;;;2.00;99.90;;;;;;7375106;32;20546;-59
2022/12/02 19:23:53;;;;;;;37.22;22.25;;;2.00;99.90;;;;;;7374756;32;20208;-59
2022/12/02 19:27:54;;;;;;;37.20;21.52;;;1.90;99.90;;;;;;7377254;32;20142;-59
2022/12/02 19:31:59;;;;;;;35.22;21.25;;;1.90;99.90;;;;;;7373879;32;20626;-61
2022/12/02 19:36:01;;;;;;;36.03;20.98;;;1.80;99.90;;;;;;7377723;32;20111;-60
2022/12/02 19:40:02;;;;;;;23.83;13.30;;;1.80;99.90;;;;;;7372020;32;20865;-59
2022/12/02 19:44:04;;;;;;;48.58;27.23;;;1.80;99.90;;;;;;7371671;32;20759;-60
2022/12/02 19:48:06;;;;;;;37.05;20.25;;;1.70;99.90;;;;;;7366492;32;20206;-60
2022/12/02 19:52:08;;;;;;;39.55;22.20;;;1.70;99.90;;;;;;7372954;32;20104;-60
2022/12/02 19:56:09;;;;;;;39.58;20.50;;;1.70;99.90;;;;;;7372648;32;20107;-58
2022/12/02 20:00:13;;;;;;;37.38;20.00;;;1.70;99.90;;;;;;7374264;32;20601;-62
2022/12/02 20:04:15;;;;;;;37.83;20.88;;;1.80;99.90;;;;;;7376195;32;20103;-60
2022/12/02 20:08:36;;;;;;;35.38;19.55;;;1.80;99.90;;;;;;7369659;32;20225;-60
2022/12/02 20:12:38;;;;;;;30.58;18.67;;;1.70;99.90;;;;;;7379192;32;20107;-61
2022/12/02 20:16:40;;;;;;;31.30;19.27;;;1.70;99.90;;;;;;7371739;32;20121;-60
2022/12/02 20:20:42;;;;;;;32.83;19.30;;;1.70;99.90;;;;;;7374155;32;20659;-61
2022/12/02 20:24:44;;;;;;;32.25;18.50;;;1.70;99.90;;;;;;7370008;32;20254;-60
2022/12/02 20:28:45;;;;;;;28.00;17.15;;;1.80;99.90;;;;;;7373298;32;20538;-60
2022/12/02 20:32:47;;;;;;;31.87;18.45;;;1.80;99.90;;;;;;7374988;32;20107;-61
2022/12/02 20:36:49;;;;;;;30.17;17.90;;;1.70;99.90;;;;;;7376776;32;20127;-60
2022/12/02 20:40:50;;;;;;;26.00;16.23;;;1.70;99.90;;;;;;7370751;32;20145;-61
2022/12/02 20:44:52;;;;;;;28.70;16.90;;;1.80;99.90;;;;;;7376517;32;20108;-61
2022/12/02 20:48:54;;;;;;;27.30;16.42;;;1.80;99.90;;;;;;7370442;32;20575;-61
2022/12/02 20:52:55;;;;;;;29.05;17.58;;;1.80;99.90;;;;;;7371654;32;20510;-60